sensor_id;sensor_type;location;lat;lon;timestamp;pressure;altitude;pressure_sealevel;temperature;humidity
47522;BME280;32291;52.010;4.446;2023-06-14T00:00:16;77536.13;;;-144.67;59.94
47522;BME280;32291;52.010;4.446;2023-06-14T00:01:18;77536.13;;;-144.67;59.91
47522;BME280;32291;52.010;4.446;2023-06-14T00:02:24;77546.84;;;-144.67;60.13
47522;BME280;32291;52.010;4.446;2023-06-14T00:03:28;77546.84;;;-144.67;60.08
47522;BME280;32291;52.010;4.446;2023-06-14T00:04:30;77546.84;;;-144.67;60.28
47522;BME280;32291;52.010;4.446;2023-06-14T00:05:32;77557.53;;;-144.67;60.39
47522;BME280;32291;52.010;4.446;2023-06-14T00:06:34;77546.84;;;-144.67;60.84
47522;BME280;32291;52.010;4.446;2023-06-14T00:07:41;77557.53;;;-144.67;61.08
47522;BME280;32291;52.010;4.446;2023-06-14T00:08:49;77557.53;;;-144.67;61.11
47522;BME280;32291;52.010;4.446;2023-06-14T00:09:52;77559.69;;;-144.67;61.00
47522;BME280;32291;52.010;4.446;2023-06-14T00:10:54;77559.69;;;-144.67;61.11
47522;BME280;32291;52.010;4.446;2023-06-14T00:11:58;77566.09;;;-144.67;61.53
47522;BME280;32291;52.010;4.446;2023-06-14T00:13:00;77563.97;;;-144.67;61.11
47522;BME280;32291;52.010;4.446;2023-06-14T00:14:08;77563.97;;;-144.67;61.65
47522;BME280;32291;52.010;4.446;2023-06-14T00:15:10;77570.38;;;-144.67;61.63
47522;BME280;32291;52.010;4.446;2023-06-14T00:16:14;77568.22;;;-144.67;61.42
47522;BME280;32291;52.010;4.446;2023-06-14T00:17:20;77568.22;;;-144.67;62.00
47522;BME280;32291;52.010;4.446;2023-06-14T00:18:24;77574.66;;;-144.67;62.24
47522;BME280;32291;52.010;4.446;2023-06-14T00:19:28;77574.66;;;-144.67;62.16
47522;BME280;32291;52.010;4.446;2023-06-14T00:20:34;77576.81;;;-144.67;62.13
47522;BME280;32291;52.010;4.446;2023-06-14T00:21:36;77568.22;;;-144.67;62.24
47522;BME280;32291;52.010;4.446;2023-06-14T00:22:39;77574.66;;;-144.67;62.57
47522;BME280;32291;52.010;4.446;2023-06-14T00:23:40;77578.94;;;-144.67;62.64
47522;BME280;32291;52.010;4.446;2023-06-14T00:24:42;77574.66;;;-144.67;62.46
47522;BME280;32291;52.010;4.446;2023-06-14T00:25:43;77585.38;;;-144.67;62.82
47522;BME280;32291;52.010;4.446;2023-06-14T00:26:44;77585.38;;;-144.67;62.86
47522;BME280;32291;52.010;4.446;2023-06-14T00:27:46;77585.38;;;-144.67;63.25
47522;BME280;32291;52.010;4.446;2023-06-14T00:28:49;77589.66;;;-144.67;63.62
47522;BME280;32291;52.010;4.446;2023-06-14T00:29:53;77593.91;;;-144.67;63.63
47522;BME280;32291;52.010;4.446;2023-06-14T00:30:55;77589.66;;;-144.67;63.50
47522;BME280;32291;52.010;4.446;2023-06-14T00:31:56;77589.66;;;-144.67;63.95
47522;BME280;32291;52.010;4.446;2023-06-14T00:32:58;77593.91;;;-144.67;64.26
47522;BME280;32291;52.010;4.446;2023-06-14T00:34:00;77606.75;;;-144.67;63.86
47522;BME280;32291;52.010;4.446;2023-06-14T00:35:04;77606.75;;;-144.67;64.04
47522;BME280;32291;52.010;4.446;2023-06-14T00:36:09;77606.75;;;-144.67;64.49
47522;BME280;32291;52.010;4.446;2023-06-14T00:37:10;77600.34;;;-144.67;64.50
47522;BME280;32291;52.010;4.446;2023-06-14T00:38:12;77600.34;;;-144.67;64.38
47522;BME280;32291;52.010;4.446;2023-06-14T00:39:14;77606.75;;;-144.67;64.49
47522;BME280;32291;52.010;4.446;2023-06-14T00:40:15;77606.75;;;-144.67;64.47
47522;BME280;32291;52.010;4.446;2023-06-14T00:41:17;77602.50;;;-144.67;64.74
47522;BME280;32291;52.010;4.446;2023-06-14T00:42:26;77604.63;;;-144.67;64.62
47522;BME280;32291;52.010;4.446;2023-06-14T00:43:30;77600.34;;;-144.67;64.70
47522;BME280;32291;52.010;4.446;2023-06-14T00:44:32;77604.63;;;-144.67;64.83
47522;BME280;32291;52.010;4.446;2023-06-14T00:45:34;77608.91;;;-144.67;65.04
47522;BME280;32291;52.010;4.446;2023-06-14T00:46:37;77606.75;;;-144.67;65.15
47522;BME280;32291;52.010;4.446;2023-06-14T00:47:41;77613.19;;;-144.67;64.96
47522;BME280;32291;52.010;4.446;2023-06-14T00:48:44;77619.63;;;-144.67;65.07
47522;BME280;32291;52.010;4.446;2023-06-14T00:49:50;77615.31;;;-144.67;65.30
47522;BME280;32291;52.010;4.446;2023-06-14T00:50:53;77615.31;;;-144.67;65.59
47522;BME280;32291;52.010;4.446;2023-06-14T00:51:55;77617.47;;;-144.67;65.64
47522;BME280;32291;52.010;4.446;2023-06-14T00:53:01;77621.75;;;-144.67;65.60
47522;BME280;32291;52.010;4.446;2023-06-14T00:54:05;77623.88;;;-144.67;65.40
47522;BME280;32291;52.010;4.446;2023-06-14T00:55:07;77621.75;;;-144.67;65.74
47522;BME280;32291;52.010;4.446;2023-06-14T00:56:09;77617.47;;;-144.67;65.41
47522;BME280;32291;52.010;4.446;2023-06-14T00:57:14;77619.63;;;-144.67;65.39
47522;BME280;32291;52.010;4.446;2023-06-14T00:58:16;77623.88;;;-144.67;65.48
47522;BME280;32291;52.010;4.446;2023-06-14T00:59:21;77621.75;;;-144.67;65.51
47522;BME280;32291;52.010;4.446;2023-06-14T01:00:23;77623.88;;;-144.67;65.13
47522;BME280;32291;52.010;4.446;2023-06-14T01:01:24;77623.88;;;-144.67;64.63
47522;BME280;32291;52.010;4.446;2023-06-14T01:02:37;77619.63;;;-144.67;64.74
47522;BME280;32291;52.010;4.446;2023-06-14T01:03:41;77619.63;;;-144.67;65.03
47522;BME280;32291;52.010;4.446;2023-06-14T01:04:46;77619.63;;;-144.67;64.87
47522;BME280;32291;52.010;4.446;2023-06-14T01:09:52;77636.72;;;-144.67;64.64
47522;BME280;32291;52.010;4.446;2023-06-14T01:11:08;77649.56;;;-144.67;64.94
47522;BME280;32291;52.010;4.446;2023-06-14T01:13:55;77649.56;;;-144.67;65.35
47522;BME280;32291;52.010;4.446;2023-06-14T01:15:01;77653.84;;;-144.67;65.73
47522;BME280;32291;52.010;4.446;2023-06-14T01:16:07;77649.56;;;-144.67;65.96
47522;BME280;32291;52.010;4.446;2023-06-14T01:17:10;77664.56;;;-144.67;66.17
47522;BME280;32291;52.010;4.446;2023-06-14T01:18:21;77658.13;;;-144.67;66.51
47522;BME280;32291;52.010;4.446;2023-06-14T01:19:23;77660.28;;;-144.67;66.90
47522;BME280;32291;52.010;4.446;2023-06-14T01:20:34;77662.41;;;-144.67;67.02
47522;BME280;32291;52.010;4.446;2023-06-14T01:21:39;77666.69;;;-144.67;67.28
47522;BME280;32291;52.010;4.446;2023-06-14T01:22:54;77668.84;;;-144.67;67.21
47522;BME280;32291;52.010;4.446;2023-06-14T01:23:55;77670.97;;;-144.67;67.65
47522;BME280;32291;52.010;4.446;2023-06-14T01:24:57;77675.25;;;-144.67;67.71
47522;BME280;32291;52.010;4.446;2023-06-14T01:26:04;77668.84;;;-144.67;67.99
47522;BME280;32291;52.010;4.446;2023-06-14T01:27:09;77675.25;;;-144.67;67.75
47522;BME280;32291;52.010;4.446;2023-06-14T01:28:14;77679.53;;;-144.67;68.06
47522;BME280;32291;52.010;4.446;2023-06-14T01:29:17;77681.69;;;-144.67;68.46
47522;BME280;32291;52.010;4.446;2023-06-14T01:30:22;77675.25;;;-144.67;68.95
47522;BME280;32291;52.010;4.446;2023-06-14T01:31:27;77683.81;;;-144.67;68.88
47522;BME280;32291;52.010;4.446;2023-06-14T01:32:31;77688.09;;;-144.67;69.10
47522;BME280;32291;52.010;4.446;2023-06-14T01:33:38;77696.66;;;-144.67;69.13
47522;BME280;32291;52.010;4.446;2023-06-14T01:34:40;77692.38;;;-144.67;69.12
47522;BME280;32291;52.010;4.446;2023-06-14T01:35:49;77696.66;;;-144.67;68.98
47522;BME280;32291;52.010;4.446;2023-06-14T01:36:54;77700.94;;;-144.67;68.70
47522;BME280;32291;52.010;4.446;2023-06-14T01:37:59;77700.94;;;-144.67;68.52
47522;BME280;32291;52.010;4.446;2023-06-14T01:39:08;77703.09;;;-144.67;68.48
47522;BME280;32291;52.010;4.446;2023-06-14T01:40:11;77700.94;;;-144.67;68.74
47522;BME280;32291;52.010;4.446;2023-06-14T01:41:15;77709.50;;;-144.67;68.65
47522;BME280;32291;52.010;4.446;2023-06-14T01:42:18;77709.50;;;-144.67;68.86
47522;BME280;32291;52.010;4.446;2023-06-14T01:43:31;77713.78;;;-144.67;68.68
47522;BME280;32291;52.010;4.446;2023-06-14T01:44:34;77715.94;;;-144.67;68.44
47522;BME280;32291;52.010;4.446;2023-06-14T01:45:40;77715.94;;;-144.67;68.34
47522;BME280;32291;52.010;4.446;2023-06-14T01:46:43;77718.06;;;-144.67;68.68
47522;BME280;32291;52.010;4.446;2023-06-14T01:47:47;77726.63;;;-144.67;68.48
47522;BME280;32291;52.010;4.446;2023-06-14T01:48:49;77726.63;;;-144.67;68.46
47522;BME280;32291;52.010;4.446;2023-06-14T01:49:54;77726.63;;;-144.67;68.80
47522;BME280;32291;52.010;4.446;2023-06-14T01:50:58;77726.63;;;-144.67;68.86
47522;BME280;32291;52.010;4.446;2023-06-14T01:52:00;77724.50;;;-144.67;69.09
47522;BME280;32291;52.010;4.446;2023-06-14T01:53:09;77718.06;;;-144.67;69.15
47522;BME280;32291;52.010;4.446;2023-06-14T01:54:11;77728.78;;;-144.67;69.15
47522;BME280;32291;52.010;4.446;2023-06-14T01:55:12;77730.91;;;-144.67;69.13
47522;BME280;32291;52.010;4.446;2023-06-14T01:56:14;77735.19;;;-144.67;68.70
47522;BME280;32291;52.010;4.446;2023-06-14T01:57:15;77733.06;;;-144.67;68.83
47522;BME280;32291;52.010;4.446;2023-06-14T01:58:19;77735.19;;;-144.67;68.81
47522;BME280;32291;52.010;4.446;2023-06-14T01:59:24;77739.47;;;-144.67;68.91
47522;BME280;32291;52.010;4.446;2023-06-14T02:00:26;77743.75;;;-144.67;68.61
47522;BME280;32291;52.010;4.446;2023-06-14T02:01:32;77745.91;;;-144.67;68.52
47522;BME280;32291;52.010;4.446;2023-06-14T02:02:39;77756.59;;;-144.67;68.01
47522;BME280;32291;52.010;4.446;2023-06-14T02:03:41;77763.03;;;-144.67;68.17
47522;BME280;32291;52.010;4.446;2023-06-14T02:04:43;77758.75;;;-144.67;67.95
47522;BME280;32291;52.010;4.446;2023-06-14T02:05:45;77760.88;;;-144.67;68.03
47522;BME280;32291;52.010;4.446;2023-06-14T02:06:46;77765.16;;;-144.67;67.86
47522;BME280;32291;52.010;4.446;2023-06-14T02:07:51;77765.16;;;-144.67;67.90
47522;BME280;32291;52.010;4.446;2023-06-14T02:08:54;77767.31;;;-144.67;67.92
47522;BME280;32291;52.010;4.446;2023-06-14T02:09:55;77773.72;;;-144.67;67.92
47522;BME280;32291;52.010;4.446;2023-06-14T02:10:57;77769.44;;;-144.67;67.69
47522;BME280;32291;52.010;4.446;2023-06-14T02:11:58;77778.00;;;-144.67;67.49
47522;BME280;32291;52.010;4.446;2023-06-14T02:13:00;77778.00;;;-144.67;67.62
47522;BME280;32291;52.010;4.446;2023-06-14T02:14:02;77771.59;;;-144.67;67.47
47522;BME280;32291;52.010;4.446;2023-06-14T02:15:04;77778.00;;;-144.67;67.58
47522;BME280;32291;52.010;4.446;2023-06-14T02:16:07;77784.44;;;-144.67;67.34
47522;BME280;32291;52.010;4.446;2023-06-14T02:17:08;77790.84;;;-144.67;67.46
47522;BME280;32291;52.010;4.446;2023-06-14T02:18:10;77790.84;;;-144.67;67.59
47522;BME280;32291;52.010;4.446;2023-06-14T02:19:12;77790.84;;;-144.67;67.50
47522;BME280;32291;52.010;4.446;2023-06-14T02:20:14;77795.13;;;-144.67;67.73
47522;BME280;32291;52.010;4.446;2023-06-14T02:21:19;77799.41;;;-144.67;67.59
47522;BME280;32291;52.010;4.446;2023-06-14T02:22:23;77805.84;;;-144.67;67.77
47522;BME280;32291;52.010;4.446;2023-06-14T02:23:24;77807.97;;;-144.67;67.47
47522;BME280;32291;52.010;4.446;2023-06-14T02:24:29;77805.84;;;-144.67;67.66
47522;BME280;32291;52.010;4.446;2023-06-14T02:25:31;77807.97;;;-144.67;67.89
47522;BME280;32291;52.010;4.446;2023-06-14T02:26:36;77810.13;;;-144.67;67.93
47522;BME280;32291;52.010;4.446;2023-06-14T02:27:42;77814.41;;;-144.67;68.23
47522;BME280;32291;52.010;4.446;2023-06-14T02:28:43;77816.53;;;-144.67;68.05
47522;BME280;32291;52.010;4.446;2023-06-14T02:29:45;77820.84;;;-144.67;67.85
47522;BME280;32291;52.010;4.446;2023-06-14T02:30:46;77825.09;;;-144.67;68.03
47522;BME280;32291;52.010;4.446;2023-06-14T02:31:48;77833.66;;;-144.67;68.41
47522;BME280;32291;52.010;4.446;2023-06-14T02:32:53;77822.97;;;-144.67;68.11
47522;BME280;32291;52.010;4.446;2023-06-14T02:33:54;77833.66;;;-144.67;68.21
47522;BME280;32291;52.010;4.446;2023-06-14T02:34:58;77840.09;;;-144.67;68.22
47522;BME280;32291;52.010;4.446;2023-06-14T02:36:06;77831.53;;;-144.67;68.47
47522;BME280;32291;52.010;4.446;2023-06-14T02:37:07;77840.09;;;-144.67;68.80
47522;BME280;32291;52.010;4.446;2023-06-14T02:38:09;77842.22;;;-144.67;68.66
47522;BME280;32291;52.010;4.446;2023-06-14T02:39:11;77842.22;;;-144.67;68.70
47522;BME280;32291;52.010;4.446;2023-06-14T02:40:15;77844.38;;;-144.67;69.12
47522;BME280;32291;52.010;4.446;2023-06-14T02:41:17;77859.38;;;-144.67;69.17
47522;BME280;32291;52.010;4.446;2023-06-14T02:42:18;77857.22;;;-144.67;69.22
47522;BME280;32291;52.010;4.446;2023-06-14T02:43:23;77859.38;;;-144.67;69.41
47522;BME280;32291;52.010;4.446;2023-06-14T02:44:26;77867.94;;;-144.67;69.33
47522;BME280;32291;52.010;4.446;2023-06-14T02:45:33;77870.06;;;-144.67;69.34
47522;BME280;32291;52.010;4.446;2023-06-14T02:46:38;77867.94;;;-144.67;69.53
47522;BME280;32291;52.010;4.446;2023-06-14T02:47:39;77876.50;;;-144.67;69.53
47522;BME280;32291;52.010;4.446;2023-06-14T02:48:41;77876.50;;;-144.67;69.83
47522;BME280;32291;52.010;4.446;2023-06-14T02:49:45;77870.06;;;-144.67;69.85
47522;BME280;32291;52.010;4.446;2023-06-14T02:50:49;77872.22;;;-144.67;69.63
47522;BME280;32291;52.010;4.446;2023-06-14T02:51:55;77878.63;;;-144.67;69.46
47522;BME280;32291;52.010;4.446;2023-06-14T02:52:56;77872.22;;;-144.67;69.31
47522;BME280;32291;52.010;4.446;2023-06-14T02:53:58;77876.50;;;-144.67;69.34
47522;BME280;32291;52.010;4.446;2023-06-14T02:54:59;77880.78;;;-144.67;69.31
47522;BME280;32291;52.010;4.446;2023-06-14T02:56:01;77876.50;;;-144.67;69.29
47522;BME280;32291;52.010;4.446;2023-06-14T02:57:08;77885.06;;;-144.67;69.39
47522;BME280;32291;52.010;4.446;2023-06-14T02:58:09;77885.06;;;-144.67;69.52
47522;BME280;32291;52.010;4.446;2023-06-14T02:59:11;77885.06;;;-144.67;69.41
47522;BME280;32291;52.010;4.446;2023-06-14T03:00:14;77885.06;;;-144.67;69.48
47522;BME280;32291;52.010;4.446;2023-06-14T03:01:16;77885.06;;;-144.67;69.74
47522;BME280;32291;52.010;4.446;2023-06-14T03:02:18;77887.19;;;-144.67;69.76
47522;BME280;32291;52.010;4.446;2023-06-14T03:03:22;77891.47;;;-144.67;69.84
47522;BME280;32291;52.010;4.446;2023-06-14T03:04:25;77887.19;;;-144.67;70.01
47522;BME280;32291;52.010;4.446;2023-06-14T03:05:27;77891.47;;;-144.67;70.09
47522;BME280;32291;52.010;4.446;2023-06-14T03:06:30;77889.34;;;-144.67;70.06
47522;BME280;32291;52.010;4.446;2023-06-14T03:07:31;77895.75;;;-144.67;70.45
47522;BME280;32291;52.010;4.446;2023-06-14T03:08:37;77902.19;;;-144.67;70.16
47522;BME280;32291;52.010;4.446;2023-06-14T03:09:45;77902.19;;;-144.67;70.19
47522;BME280;32291;52.010;4.446;2023-06-14T03:10:47;77902.19;;;-144.67;70.24
47522;BME280;32291;52.010;4.446;2023-06-14T03:11:49;77904.31;;;-144.67;70.23
47522;BME280;32291;52.010;4.446;2023-06-14T03:12:55;77908.59;;;-144.67;70.42
47522;BME280;32291;52.010;4.446;2023-06-14T03:13:57;77906.47;;;-144.67;70.68
47522;BME280;32291;52.010;4.446;2023-06-14T03:14:58;77912.88;;;-144.67;70.75
47522;BME280;32291;52.010;4.446;2023-06-14T03:16:06;77915.03;;;-144.67;70.72
47522;BME280;32291;52.010;4.446;2023-06-14T03:17:08;77917.16;;;-144.67;70.62
47522;BME280;32291;52.010;4.446;2023-06-14T03:18:11;77921.44;;;-144.67;70.70
47522;BME280;32291;52.010;4.446;2023-06-14T03:19:22;77921.44;;;-144.67;70.66
47522;BME280;32291;52.010;4.446;2023-06-14T03:20:23;77919.31;;;-144.67;70.62
47522;BME280;32291;52.010;4.446;2023-06-14T03:21:25;77925.72;;;-144.67;70.50
47522;BME280;32291;52.010;4.446;2023-06-14T03:22:27;77923.59;;;-144.67;70.76
47522;BME280;32291;52.010;4.446;2023-06-14T03:23:30;77927.88;;;-144.67;70.76
47522;BME280;32291;52.010;4.446;2023-06-14T03:24:34;77932.16;;;-144.67;70.64
47522;BME280;32291;52.010;4.446;2023-06-14T03:25:43;77932.16;;;-144.67;70.61
47522;BME280;32291;52.010;4.446;2023-06-14T03:26:44;77934.28;;;-144.67;70.72
47522;BME280;32291;52.010;4.446;2023-06-14T03:27:48;77936.44;;;-144.67;70.88
47522;BME280;32291;52.010;4.446;2023-06-14T03:28:58;77932.16;;;-144.67;70.67
47522;BME280;32291;52.010;4.446;2023-06-14T03:30:00;77934.28;;;-144.67;70.91
47522;BME280;32291;52.010;4.446;2023-06-14T03:31:02;77936.44;;;-144.67;71.20
47522;BME280;32291;52.010;4.446;2023-06-14T03:32:07;77938.56;;;-144.67;71.37
47522;BME280;32291;52.010;4.446;2023-06-14T03:33:09;77938.56;;;-144.67;71.54
47522;BME280;32291;52.010;4.446;2023-06-14T03:34:10;77945.00;;;-144.67;71.38
47522;BME280;32291;52.010;4.446;2023-06-14T03:35:12;77942.84;;;-144.67;71.33
47522;BME280;32291;52.010;4.446;2023-06-14T03:36:18;77947.13;;;-144.67;71.28
47522;BME280;32291;52.010;4.446;2023-06-14T03:37:23;77945.00;;;-144.67;71.27
47522;BME280;32291;52.010;4.446;2023-06-14T03:38:24;77945.00;;;-144.67;71.14
47522;BME280;32291;52.010;4.446;2023-06-14T03:39:32;77945.00;;;-144.67;71.30
47522;BME280;32291;52.010;4.446;2023-06-14T03:40:34;77947.13;;;-144.67;71.33
47522;BME280;32291;52.010;4.446;2023-06-14T03:41:35;77949.28;;;-144.67;71.47
47522;BME280;32291;52.010;4.446;2023-06-14T03:42:37;77957.84;;;-144.67;71.45
47522;BME280;32291;52.010;4.446;2023-06-14T03:43:39;77953.56;;;-144.67;71.50
47522;BME280;32291;52.010;4.446;2023-06-14T03:44:40;77953.56;;;-144.67;71.45
47522;BME280;32291;52.010;4.446;2023-06-14T03:45:44;77957.84;;;-144.67;71.54
47522;BME280;32291;52.010;4.446;2023-06-14T03:46:46;77957.84;;;-144.67;71.45
47522;BME280;32291;52.010;4.446;2023-06-14T03:47:48;77957.84;;;-144.67;71.46
47522;BME280;32291;52.010;4.446;2023-06-14T03:48:49;77957.84;;;-144.67;71.42
47522;BME280;32291;52.010;4.446;2023-06-14T03:49:51;77959.97;;;-144.67;71.21
47522;BME280;32291;52.010;4.446;2023-06-14T03:50:52;77962.13;;;-144.67;71.47
47522;BME280;32291;52.010;4.446;2023-06-14T03:51:56;77959.97;;;-144.67;71.24
47522;BME280;32291;52.010;4.446;2023-06-14T03:52:57;77962.13;;;-144.67;71.24
47522;BME280;32291;52.010;4.446;2023-06-14T03:53:59;77962.13;;;-144.67;71.25
47522;BME280;32291;52.010;4.446;2023-06-14T03:55:00;77959.97;;;-144.67;71.26
47522;BME280;32291;52.010;4.446;2023-06-14T03:56:02;77962.13;;;-144.67;71.52
47522;BME280;32291;52.010;4.446;2023-06-14T03:57:06;77957.84;;;-144.67;71.42
47522;BME280;32291;52.010;4.446;2023-06-14T03:58:08;77957.84;;;-144.67;71.45
47522;BME280;32291;52.010;4.446;2023-06-14T03:59:09;77953.56;;;-144.67;71.50
47522;BME280;32291;52.010;4.446;2023-06-14T04:00:12;77957.84;;;-144.67;71.34
47522;BME280;32291;52.010;4.446;2023-06-14T04:01:15;77953.56;;;-144.67;71.44
47522;BME280;32291;52.010;4.446;2023-06-14T04:02:19;77957.84;;;-144.67;71.52
47522;BME280;32291;52.010;4.446;2023-06-14T04:03:23;77957.84;;;-144.67;71.40
47522;BME280;32291;52.010;4.446;2023-06-14T04:04:27;77953.56;;;-144.67;71.11
47522;BME280;32291;52.010;4.446;2023-06-14T04:05:30;77957.84;;;-144.67;71.09
47522;BME280;32291;52.010;4.446;2023-06-14T04:06:43;77955.69;;;-144.67;71.11
47522;BME280;32291;52.010;4.446;2023-06-14T04:07:46;77957.84;;;-144.67;71.11
47522;BME280;32291;52.010;4.446;2023-06-14T04:08:49;77953.56;;;-144.67;71.00
47522;BME280;32291;52.010;4.446;2023-06-14T04:09:53;77953.56;;;-144.67;71.00
47522;BME280;32291;52.010;4.446;2023-06-14T04:10:55;77962.13;;;-144.67;71.10
47522;BME280;32291;52.010;4.446;2023-06-14T04:11:59;77959.97;;;-144.67;71.06
47522;BME280;32291;52.010;4.446;2023-06-14T04:13:02;77953.56;;;-144.67;70.67
47522;BME280;32291;52.010;4.446;2023-06-14T04:14:05;77957.84;;;-144.67;70.74
47522;BME280;32291;52.010;4.446;2023-06-14T04:15:08;77962.13;;;-144.67;70.61
47522;BME280;32291;52.010;4.446;2023-06-14T04:16:12;77957.84;;;-144.67;70.61
47522;BME280;32291;52.010;4.446;2023-06-14T04:17:14;77953.56;;;-144.67;70.55
47522;BME280;32291;52.010;4.446;2023-06-14T04:18:15;77953.56;;;-144.67;70.46
47522;BME280;32291;52.010;4.446;2023-06-14T04:19:17;77951.41;;;-144.67;70.71
47522;BME280;32291;52.010;4.446;2023-06-14T04:20:19;77951.41;;;-144.67;70.86
47522;BME280;32291;52.010;4.446;2023-06-14T04:21:23;77951.41;;;-144.67;70.83
47522;BME280;32291;52.010;4.446;2023-06-14T04:22:26;77953.56;;;-144.67;70.54
47522;BME280;32291;52.010;4.446;2023-06-14T04:23:32;77953.56;;;-144.67;70.64
47522;BME280;32291;52.010;4.446;2023-06-14T04:24:36;77953.56;;;-144.67;70.85
47522;BME280;32291;52.010;4.446;2023-06-14T04:25:38;77955.69;;;-144.67;70.63
47522;BME280;32291;52.010;4.446;2023-06-14T04:26:41;77953.56;;;-144.67;70.31
47522;BME280;32291;52.010;4.446;2023-06-14T04:27:45;77951.41;;;-144.67;70.42
47522;BME280;32291;52.010;4.446;2023-06-14T04:28:48;77953.56;;;-144.67;70.36
47522;BME280;32291;52.010;4.446;2023-06-14T04:29:54;77949.28;;;-144.67;70.42
47522;BME280;32291;52.010;4.446;2023-06-14T04:31:00;77942.84;;;-144.67;70.19
47522;BME280;32291;52.010;4.446;2023-06-14T04:32:03;77947.13;;;-144.67;69.92
47522;BME280;32291;52.010;4.446;2023-06-14T04:33:08;77945.00;;;-144.67;69.93
47522;BME280;32291;52.010;4.446;2023-06-14T04:34:11;77938.56;;;-144.67;70.04
47522;BME280;32291;52.010;4.446;2023-06-14T04:35:17;77936.44;;;-144.67;69.62
47522;BME280;32291;52.010;4.446;2023-06-14T04:36:24;77942.84;;;-144.67;69.34
47522;BME280;32291;52.010;4.446;2023-06-14T04:37:26;77940.72;;;-144.67;69.22
47522;BME280;32291;52.010;4.446;2023-06-14T04:38:29;77936.44;;;-144.67;69.13
47522;BME280;32291;52.010;4.446;2023-06-14T04:39:32;77940.72;;;-144.67;69.26
47522;BME280;32291;52.010;4.446;2023-06-14T04:40:34;77934.28;;;-144.67;68.68
47522;BME280;32291;52.010;4.446;2023-06-14T04:41:37;77932.16;;;-144.67;68.87
47522;BME280;32291;52.010;4.446;2023-06-14T04:42:40;77930.00;;;-144.67;68.84
47522;BME280;32291;52.010;4.446;2023-06-14T04:43:41;77927.88;;;-144.67;69.12
47522;BME280;32291;52.010;4.446;2023-06-14T04:44:46;77923.59;;;-144.67;68.82
47522;BME280;32291;52.010;4.446;2023-06-14T04:45:51;77923.59;;;-144.67;68.51
47522;BME280;32291;52.010;4.446;2023-06-14T04:46:53;77915.03;;;-144.67;68.32
47522;BME280;32291;52.010;4.446;2023-06-14T04:47:59;77915.03;;;-144.67;68.76
47522;BME280;32291;52.010;4.446;2023-06-14T04:49:03;77908.59;;;-144.67;68.49
47522;BME280;32291;52.010;4.446;2023-06-14T04:50:08;77908.59;;;-144.67;68.20
47522;BME280;32291;52.010;4.446;2023-06-14T04:51:09;77912.88;;;-144.67;68.32
47522;BME280;32291;52.010;4.446;2023-06-14T04:52:17;77906.47;;;-144.67;68.29
47522;BME280;32291;52.010;4.446;2023-06-14T04:53:21;77904.31;;;-144.67;68.28
47522;BME280;32291;52.010;4.446;2023-06-14T04:54:30;77910.75;;;-144.67;67.81
47522;BME280;32291;52.010;4.446;2023-06-14T04:55:34;77904.31;;;-144.67;67.89
47522;BME280;32291;52.010;4.446;2023-06-14T04:56:38;77900.03;;;-144.67;67.71
47522;BME280;32291;52.010;4.446;2023-06-14T04:57:40;77897.91;;;-144.67;67.70
47522;BME280;32291;52.010;4.446;2023-06-14T04:58:42;77893.63;;;-144.67;68.16
47522;BME280;32291;52.010;4.446;2023-06-14T04:59:44;77891.47;;;-144.67;68.11
47522;BME280;32291;52.010;4.446;2023-06-14T05:00:46;77897.91;;;-144.67;67.58
47522;BME280;32291;52.010;4.446;2023-06-14T05:01:47;77895.75;;;-144.67;67.72
47522;BME280;32291;52.010;4.446;2023-06-14T05:02:52;77893.63;;;-144.67;67.49
47522;BME280;32291;52.010;4.446;2023-06-14T05:03:54;77889.34;;;-144.67;67.66
47522;BME280;32291;52.010;4.446;2023-06-14T05:04:56;77889.34;;;-144.67;67.45
47522;BME280;32291;52.010;4.446;2023-06-14T05:06:00;77897.91;;;-144.67;67.72
47522;BME280;32291;52.010;4.446;2023-06-14T05:07:08;77889.34;;;-144.67;67.40
47522;BME280;32291;52.010;4.446;2023-06-14T05:08:10;77895.75;;;-144.67;67.46
47522;BME280;32291;52.010;4.446;2023-06-14T05:09:15;77893.63;;;-144.67;67.52
47522;BME280;32291;52.010;4.446;2023-06-14T05:10:24;77893.63;;;-144.67;67.36
47522;BME280;32291;52.010;4.446;2023-06-14T05:11:26;77889.34;;;-144.67;67.48
47522;BME280;32291;52.010;4.446;2023-06-14T05:12:28;77887.19;;;-144.67;67.28
47522;BME280;32291;52.010;4.446;2023-06-14T05:13:38;77893.63;;;-144.67;67.34
47522;BME280;32291;52.010;4.446;2023-06-14T05:14:42;77885.06;;;-144.67;67.35
47522;BME280;32291;52.010;4.446;2023-06-14T05:15:43;77885.06;;;-144.67;66.69
47522;BME280;32291;52.010;4.446;2023-06-14T05:16:45;77880.78;;;-144.67;66.79
47522;BME280;32291;52.010;4.446;2023-06-14T05:17:47;77887.19;;;-144.67;66.72
47522;BME280;32291;52.010;4.446;2023-06-14T05:18:54;77889.34;;;-144.67;66.93
47522;BME280;32291;52.010;4.446;2023-06-14T05:19:59;77885.06;;;-144.67;67.07
47522;BME280;32291;52.010;4.446;2023-06-14T05:21:04;77889.34;;;-144.67;67.19
47522;BME280;32291;52.010;4.446;2023-06-14T05:22:18;77885.06;;;-144.67;67.32
47522;BME280;32291;52.010;4.446;2023-06-14T05:23:23;77887.19;;;-144.67;67.46
47522;BME280;32291;52.010;4.446;2023-06-14T05:24:24;77893.63;;;-144.67;67.70
47522;BME280;32291;52.010;4.446;2023-06-14T05:25:26;77885.06;;;-144.67;68.19
47522;BME280;32291;52.010;4.446;2023-06-14T05:26:36;77880.78;;;-144.67;68.08
47522;BME280;32291;52.010;4.446;2023-06-14T05:27:38;77880.78;;;-144.67;68.18
47522;BME280;32291;52.010;4.446;2023-06-14T05:28:44;77878.63;;;-144.67;68.29
47522;BME280;32291;52.010;4.446;2023-06-14T05:29:48;77872.22;;;-144.67;67.73
47522;BME280;32291;52.010;4.446;2023-06-14T05:30:54;77867.94;;;-144.67;67.24
47522;BME280;32291;52.010;4.446;2023-06-14T05:31:55;77874.34;;;-144.67;67.32
47522;BME280;32291;52.010;4.446;2023-06-14T05:32:59;77872.22;;;-144.67;67.48
47522;BME280;32291;52.010;4.446;2023-06-14T05:34:04;77874.34;;;-144.67;67.62